Guiyang, China
Current Conditions -  °F | °C
As of 3:00 PM on Friday 24 Oct 2014 (Local Time) from ZUGY Reporting Station
Scattered Clouds Scattered Clouds  
Wind Chill: 70°   Ceiling: Unl
Heat Index: 70°   Visibility: 6mi
Dew Point: 55°   Wind: 11mph
Humidity: 60%   Direction: 220°SW
Pressure: 30.06"   Gusts: NA
Location:  26.58°N, 106.72°E
Report Text: ZUGY 240700Z 22005MPS 180V250 9999 SCT030 21/13 Q1018 NOSIG
Loading
Personal Weather Stations






























Interactive Weather Map
Tropical Storm Tracking
New forecast layout! Learn more

10-Day Weather Forecast

Advertisements
Track Severe Weather on mobile